Ballston Spa, NY (12020)

3:51 AM EDT on July 31, 2016 (GMT -0400)
Mourningkill Creek | | Change Station

Elev 364 ft 42.97 °N, 73.86 °W | Updated 8 seconds ago

Light Rain
Light Rain
66.2 °F
Feels Like 66.2 °F
N
0.0
Wind Variable Wind from SE
Gusts 0.0 mph

Today
High -- | Low -- °F
--% Chance of Precip.
Yesterday
High -- | Low -- °F
Precip. -- in
Pressure 30.04 in
Visibility 10.0 miles
Clouds Few 3600 ft
Mostly Cloudy 6000 ft
Mostly Cloudy 11000 ft
Mostly Cloudy 16000 ft
Overcast 19000 ft
Dew Point Not available.
Humidity Not available.
Rainfall 0.02 in
Snow Depth Not available.
5:45 AM 8:17 PM
Waning Crescent, 8% visible
METAR KALB 310651Z 33003KT 10SM -RA FEW036 BKN060 BKN110 BKN160 OVC190 20/18 A3005 RMK AO2 SLP173 P0000 T02000183
Pressure 30.04 in
Visibility 10.0 miles
Clouds Few 3600 ft
Mostly Cloudy 6000 ft
Mostly Cloudy 11000 ft
Mostly Cloudy 16000 ft
Overcast 19000 ft
Dew Point Not available.
Humidity Not available.
Rainfall 0.02 in
Snow Depth Not available.
5:45 AM 8:17 PM
Waning Crescent, 8% visible
METAR KALB 310651Z 33003KT 10SM -RA FEW036 BKN060 BKN110 BKN160 OVC190 20/18 A3005 RMK AO2 SLP173 P0000 T02000183

10-Day Weather Forecast

Almanac

Astronomy

Jul. 31, 2016 Rise Set
Actual Time
Civil Twilight
Nautical Twilight
Astronomical Twilight
Moon
Length of Visible Light
Length of Day
Tomorrow will be .
, % of the Moon is Illuminated

Today's Extremes

State Highs State Lows

Community

WunderPhotos

Upload Photos

1,928,768 photos uploaded!

WunderBlog® & News

Nearby

Air Quality

  Air Quality AQ Index Pollutant
Not available.

Snow Depth

Station Depth Elevation

Earthquake Activity

City Distance Mag. Time & Date
Minimum magnitude displayed is 2.5.

Coastal Water Temperatures

Place Temperature

Stations

Nearby Weather Stations

Station Location Temp. Windchill Dew Point Humidity Wind Precip. Elev Updated Type
                   

Watches & Warnings

There are currently no watches in effect.